createdAt,value
2019-03-17T00:00:36.682Z,6.50
2019-03-17T00:03:06.137Z,6.50
2019-03-17T00:05:35.714Z,6.70
2019-03-17T00:08:05.144Z,6.80
2019-03-17T00:10:34.570Z,7.00
2019-03-17T00:13:04.048Z,7.00
2019-03-17T00:15:33.793Z,7.00
2019-03-17T00:18:03.273Z,6.80
2019-03-17T00:20:32.742Z,6.60
2019-03-17T00:23:02.353Z,6.40
2019-03-17T00:25:31.908Z,6.20
2019-03-17T00:28:01.562Z,6.00
2019-03-17T00:30:31.112Z,6.00
2019-03-17T00:33:00.621Z,6.00
2019-03-17T00:35:30.236Z,6.20
2019-03-17T00:37:59.843Z,6.40
2019-03-17T00:40:29.327Z,6.60
2019-03-17T00:42:59.221Z,6.60
2019-03-17T00:45:28.665Z,6.60
2019-03-17T00:47:58.549Z,6.60
2019-03-17T00:50:28.000Z,6.60
2019-03-17T00:52:57.539Z,6.60
2019-03-17T00:55:27.139Z,6.50
2019-03-17T00:57:56.670Z,6.60
2019-03-17T01:00:26.178Z,6.50
2019-03-17T01:02:55.753Z,6.50
2019-03-17T01:05:25.236Z,6.40
2019-03-17T01:07:54.890Z,6.30
2019-03-17T01:10:24.424Z,6.20
2019-03-17T01:12:53.914Z,6.20
2019-03-17T01:15:23.387Z,6.40
2019-03-17T01:17:52.956Z,6.40
2019-03-17T01:20:22.424Z,6.50
2019-03-17T01:22:52.014Z,6.40
2019-03-17T01:25:21.704Z,6.50
2019-03-17T01:27:51.223Z,6.50
2019-03-17T01:30:20.885Z,6.40
2019-03-17T01:32:50.412Z,6.20
2019-03-17T01:35:19.953Z,6.00
2019-03-17T01:37:49.437Z,6.10
2019-03-17T01:40:19.006Z,6.30
2019-03-17T01:42:48.439Z,6.40
2019-03-17T01:45:17.941Z,6.60
2019-03-17T01:47:47.490Z,6.70
2019-03-17T01:50:17.013Z,6.90
2019-03-17T01:52:46.489Z,7.10
2019-03-17T01:55:16.060Z,7.20
2019-03-17T01:57:45.582Z,7.70
2019-03-17T02:00:15.099Z,9.10
2019-03-17T02:02:44.748Z,10.20
2019-03-17T02:05:22.040Z,10.50
2019-03-17T02:07:45.484Z,10.70
2019-03-17T02:10:14.958Z,10.70
2019-03-17T02:12:44.774Z,11.00
2019-03-17T02:15:14.339Z,11.10
2019-03-17T02:17:44.109Z,11.60
2019-03-17T02:20:13.616Z,11.70
2019-03-17T02:22:43.174Z,12.10
2019-03-17T02:25:12.833Z,11.70
2019-03-17T02:27:42.350Z,11.10
2019-03-17T02:30:12.167Z,10.50
2019-03-17T02:32:41.643Z,9.80
2019-03-17T02:35:11.044Z,9.30
2019-03-17T02:37:40.911Z,8.90
2019-03-17T02:40:10.412Z,8.70
2019-03-17T02:42:39.994Z,8.50
2019-03-17T02:45:09.648Z,8.40
2019-03-17T02:47:39.139Z,8.20
2019-03-17T02:50:09.177Z,7.90
2019-03-17T02:52:38.660Z,7.80
2019-03-17T02:55:08.255Z,7.90
2019-03-17T02:57:37.741Z,7.90
2019-03-17T03:00:07.927Z,8.10
2019-03-17T03:02:37.671Z,8.10
2019-03-17T03:05:08.153Z,8.40
2019-03-17T03:07:37.692Z,9.20
2019-03-17T03:10:07.810Z,9.00
2019-03-17T03:12:37.275Z,9.10
2019-03-17T03:15:06.942Z,9.00
2019-03-17T03:17:36.384Z,8.90
2019-03-17T03:20:06.337Z,8.80
2019-03-17T03:22:36.013Z,8.80
2019-03-17T03:25:06.847Z,8.70
2019-03-17T03:27:36.346Z,8.60
2019-03-17T03:30:06.826Z,8.70
2019-03-17T03:32:36.417Z,8.70
2019-03-17T03:35:06.173Z,8.50
2019-03-17T03:37:35.821Z,8.40
2019-03-17T03:40:05.888Z,8.20
2019-03-17T03:42:35.414Z,8.20
2019-03-17T03:45:05.578Z,8.60
2019-03-17T03:47:35.083Z,8.70
2019-03-17T03:50:04.958Z,8.70
2019-03-17T03:52:34.474Z,8.70
2019-03-17T03:55:04.167Z,8.40
2019-03-17T03:57:33.639Z,8.20
2019-03-17T04:00:03.098Z,8.10
2019-03-17T04:02:32.925Z,8.00
2019-03-17T04:05:02.457Z,7.90
2019-03-17T04:07:32.042Z,7.80
2019-03-17T04:10:01.547Z,7.80
2019-03-17T04:12:31.058Z,7.80
2019-03-17T04:15:00.750Z,7.70
2019-03-17T04:17:30.256Z,7.80
2019-03-17T04:19:59.755Z,8.20
2019-03-17T04:22:29.331Z,8.90
2019-03-17T04:24:58.838Z,9.70
2019-03-17T04:27:28.375Z,10.40
2019-03-17T04:29:57.844Z,11.20
2019-03-17T04:32:27.422Z,11.50
2019-03-17T04:34:56.868Z,11.80
2019-03-17T04:37:26.328Z,12.10
2019-03-17T04:39:55.889Z,12.20
2019-03-17T04:42:25.476Z,12.10
2019-03-17T04:44:54.976Z,12.30
2019-03-17T04:47:24.890Z,12.30
2019-03-17T04:49:54.447Z,12.30
2019-03-17T04:52:24.109Z,12.50
2019-03-17T04:54:54.496Z,12.40
2019-03-17T04:57:23.971Z,12.40
2019-03-17T04:59:53.750Z,12.40
2019-03-17T05:02:23.318Z,12.50
2019-03-17T05:04:52.825Z,12.30
2019-03-17T05:07:22.293Z,12.50
2019-03-17T05:09:51.764Z,12.60
2019-03-17T05:12:21.335Z,12.60
2019-03-17T05:15:05.983Z,12.70
2019-03-17T05:17:25.167Z,12.70
2019-03-17T05:20:30.650Z,12.80
2019-03-17T05:23:00.218Z,12.70
2019-03-17T05:25:29.817Z,12.50
2019-03-17T05:27:59.241Z,12.50
2019-03-17T05:30:28.664Z,12.50
2019-03-17T05:32:58.161Z,12.40
2019-03-17T05:35:27.675Z,12.50
2019-03-17T05:37:57.137Z,12.50
2019-03-17T05:40:26.581Z,12.50
2019-03-17T05:42:56.528Z,12.50
2019-03-17T05:45:25.961Z,12.50
2019-03-17T05:47:55.434Z,12.60
2019-03-17T05:50:42.795Z,12.60
2019-03-17T05:53:12.261Z,12.70
2019-03-17T05:55:42.309Z,12.60
2019-03-17T05:58:11.937Z,12.60
2019-03-17T06:00:41.503Z,12.50
2019-03-17T06:03:12.006Z,12.60
2019-03-17T06:06:00.441Z,12.50
2019-03-17T06:08:29.797Z,12.60
2019-03-17T06:10:59.156Z,12.60
2019-03-17T06:13:28.948Z,12.60
2019-03-17T06:15:58.337Z,12.60
2019-03-17T06:18:27.698Z,12.60
2019-03-17T06:21:15.284Z,12.80
2019-03-17T06:23:44.714Z,12.80
2019-03-17T06:26:14.362Z,12.90
2019-03-17T06:28:43.733Z,12.80
2019-03-17T06:31:13.187Z,12.90
2019-03-17T06:34:36.336Z,12.90
2019-03-17T06:37:05.962Z,13.00
2019-03-17T06:39:35.398Z,13.20
2019-03-17T06:42:04.791Z,13.30
2019-03-17T06:44:34.240Z,13.40
2019-03-17T06:47:05.880Z,13.40
2019-03-17T06:49:34.999Z,13.40
2019-03-17T06:52:04.355Z,13.50
2019-03-17T06:54:33.724Z,13.40
2019-03-17T06:57:03.106Z,13.40
2019-03-17T06:59:32.593Z,13.40
2019-03-17T07:02:02.068Z,13.40
2019-03-17T07:04:31.454Z,13.60
2019-03-17T07:07:00.884Z,13.70
2019-03-17T07:09:30.313Z,13.70
2019-03-17T07:11:59.841Z,13.70
2019-03-17T07:14:29.314Z,14.00
2019-03-17T07:16:58.804Z,14.00
2019-03-17T07:19:28.145Z,14.10
2019-03-17T07:21:57.917Z,14.10
2019-03-17T07:24:27.296Z,14.10
2019-03-17T07:26:56.748Z,14.20
2019-03-17T07:29:26.494Z,14.40
2019-03-17T07:31:55.807Z,14.70
2019-03-17T07:34:25.274Z,15.50
2019-03-17T07:36:54.887Z,15.70
2019-03-17T07:39:24.304Z,16.20
2019-03-17T07:41:53.653Z,16.10
2019-03-17T07:44:23.039Z,15.70
2019-03-17T07:46:54.787Z,15.70
2019-03-17T07:49:24.163Z,15.90
2019-03-17T07:51:53.493Z,15.60
2019-03-17T07:54:22.901Z,15.90
2019-03-17T07:56:52.713Z,15.50
2019-03-17T07:59:22.252Z,15.50
2019-03-17T08:02:45.761Z,15.40
2019-03-17T08:05:15.279Z,15.40
2019-03-17T08:07:44.757Z,16.20
2019-03-17T08:10:14.511Z,16.20
2019-03-17T08:12:43.996Z,16.80
2019-03-17T08:15:13.623Z,17.20
2019-03-17T08:17:43.186Z,16.90
2019-03-17T08:20:12.800Z,17.70
2019-03-17T08:22:42.609Z,18.50
2019-03-17T08:25:12.161Z,18.30
2019-03-17T08:27:42.069Z,18.40
2019-03-17T08:30:11.715Z,19.10
2019-03-17T08:32:41.728Z,19.90
2019-03-17T08:35:12.031Z,20.40
2019-03-17T08:37:41.811Z,20.00
2019-03-17T08:40:12.473Z,20.40
2019-03-17T08:42:42.111Z,21.20
2019-03-17T08:45:12.026Z,19.30
2019-03-17T08:47:41.583Z,19.40
2019-03-17T08:50:11.325Z,20.40
2019-03-17T08:52:40.946Z,20.10
2019-03-17T08:55:10.642Z,20.80
2019-03-17T08:57:40.239Z,20.70
2019-03-17T09:00:12.057Z,20.40
2019-03-17T09:02:41.610Z,20.80
2019-03-17T09:05:11.178Z,21.00
2019-03-17T09:07:40.654Z,20.40
2019-03-17T09:10:10.730Z,20.50
2019-03-17T09:12:40.179Z,21.00
2019-03-17T09:15:09.984Z,21.30
2019-03-17T09:17:39.521Z,21.00
2019-03-17T09:20:09.487Z,20.00
2019-03-17T09:22:38.953Z,20.30
2019-03-17T09:25:09.206Z,20.50
2019-03-17T09:27:38.890Z,21.00
2019-03-17T09:30:09.887Z,20.60
2019-03-17T09:32:39.550Z,21.30
2019-03-17T09:35:09.443Z,22.30
2019-03-17T09:37:38.959Z,22.50
2019-03-17T09:40:10.023Z,22.50
2019-03-17T09:42:39.643Z,22.30
2019-03-17T09:45:09.575Z,20.70
2019-03-17T09:47:41.108Z,20.50
2019-03-17T09:50:11.584Z,20.40
2019-03-17T09:52:41.109Z,20.90
2019-03-17T09:55:10.543Z,19.90
2019-03-17T09:57:40.394Z,19.40
2019-03-17T10:00:11.941Z,19.60
2019-03-17T10:02:41.565Z,19.40
2019-03-17T10:05:11.158Z,19.80
2019-03-17T10:07:40.611Z,19.90
2019-03-17T10:10:11.725Z,20.50
2019-03-17T10:12:41.467Z,20.30
2019-03-17T10:15:12.441Z,20.50
2019-03-17T10:17:41.905Z,19.90
2019-03-17T10:20:14.227Z,20.40
2019-03-17T10:22:43.675Z,20.70
2019-03-17T10:25:13.381Z,20.60
2019-03-17T10:27:43.378Z,20.30
2019-03-17T10:30:13.782Z,20.50
2019-03-17T10:32:43.254Z,20.80
2019-03-17T10:35:12.764Z,20.90
2019-03-17T10:37:42.277Z,21.40
2019-03-17T10:40:13.758Z,21.60
2019-03-17T10:42:43.271Z,20.50
2019-03-17T10:45:12.941Z,20.90
2019-03-17T10:47:42.411Z,21.00
2019-03-17T10:50:13.594Z,21.50
2019-03-17T10:52:43.203Z,21.20
2019-03-17T10:55:12.861Z,20.40
2019-03-17T10:58:00.572Z,20.90
2019-03-17T11:00:30.100Z,20.40
2019-03-17T11:02:59.588Z,19.80
2019-03-17T11:05:29.266Z,20.00
2019-03-17T11:07:58.717Z,19.20
2019-03-17T11:10:28.198Z,19.00
2019-03-17T11:12:57.821Z,19.70
2019-03-17T11:15:27.258Z,19.90
2019-03-17T11:17:56.724Z,20.30
2019-03-17T11:20:28.440Z,19.80
2019-03-17T11:22:57.956Z,20.60
2019-03-17T11:25:27.449Z,20.90
2019-03-17T11:27:57.122Z,20.50
2019-03-17T11:30:26.660Z,20.30
2019-03-17T11:32:56.215Z,19.60
2019-03-17T11:35:25.696Z,19.20
2019-03-17T11:37:55.141Z,19.10
2019-03-17T11:40:24.591Z,19.30
2019-03-17T11:42:54.114Z,19.00
2019-03-17T11:45:23.585Z,19.10
2019-03-17T11:47:53.344Z,19.20
2019-03-17T11:50:23.037Z,19.50
2019-03-17T11:52:52.615Z,19.90
2019-03-17T11:56:15.815Z,19.30
2019-03-17T11:58:45.390Z,19.40
2019-03-17T12:01:17.798Z,19.10
2019-03-17T12:03:46.126Z,19.80
2019-03-17T12:06:15.945Z,19.90
2019-03-17T12:08:45.474Z,19.70
2019-03-17T12:11:15.064Z,19.90
2019-03-17T12:13:44.573Z,19.10
2019-03-17T12:16:14.095Z,18.90
2019-03-17T12:18:43.737Z,18.20
2019-03-17T12:21:13.252Z,17.70
2019-03-17T12:23:42.805Z,17.10
2019-03-17T12:26:12.654Z,16.80
2019-03-17T12:28:42.174Z,16.70
2019-03-17T12:31:11.639Z,16.90
2019-03-17T12:33:41.211Z,17.00
2019-03-17T12:36:10.725Z,17.30
2019-03-17T12:38:40.174Z,17.70
2019-03-17T12:41:09.750Z,17.40
2019-03-17T12:43:39.269Z,17.10
2019-03-17T12:46:08.891Z,17.10
2019-03-17T12:48:38.477Z,17.50
2019-03-17T12:51:07.972Z,17.50
2019-03-17T12:53:37.442Z,17.70
2019-03-17T12:56:07.190Z,16.70
2019-03-17T12:58:36.726Z,16.30
2019-03-17T13:01:06.283Z,16.20
2019-03-17T13:04:30.292Z,16.10
2019-03-17T13:06:59.880Z,15.70
2019-03-17T13:09:29.412Z,15.40
2019-03-17T13:11:59.017Z,15.30
2019-03-17T13:14:28.523Z,15.20
2019-03-17T13:16:58.097Z,15.10
2019-03-17T13:19:27.686Z,15.00
2019-03-17T13:22:15.637Z,15.00
2019-03-17T13:24:45.268Z,15.20
2019-03-17T13:27:14.917Z,15.00
2019-03-17T13:29:44.405Z,15.00
2019-03-17T13:32:15.293Z,14.90
2019-03-17T13:34:44.893Z,14.70
2019-03-17T13:37:14.752Z,14.50
2019-03-17T13:39:44.236Z,14.40
2019-03-17T13:42:13.777Z,14.30
2019-03-17T13:44:43.369Z,14.50
2019-03-17T13:47:12.886Z,14.40
2019-03-17T13:49:42.827Z,14.30
2019-03-17T13:52:12.466Z,14.00
2019-03-17T13:54:42.075Z,14.00
2019-03-17T13:57:11.599Z,13.80
2019-03-17T13:59:41.216Z,13.70
2019-03-17T14:02:10.780Z,13.60
2019-03-17T14:04:40.310Z,13.50
2019-03-17T14:07:09.928Z,13.20
2019-03-17T14:09:39.587Z,12.30
2019-03-17T14:12:09.390Z,10.70
2019-03-17T14:15:14.736Z,9.30
2019-03-17T14:17:44.318Z,8.80
2019-03-17T14:20:16.085Z,8.50
2019-03-17T14:22:45.774Z,8.30
2019-03-17T14:25:20.905Z,8.00
2019-03-17T14:27:50.709Z,7.30
2019-03-17T14:30:20.309Z,7.10
2019-03-17T14:32:49.977Z,6.90
2019-03-17T14:35:21.447Z,6.90
2019-03-17T14:37:50.835Z,6.70
2019-03-17T14:40:38.648Z,6.50
2019-03-17T14:43:08.466Z,6.40
2019-03-17T14:45:38.056Z,6.30
2019-03-17T14:48:07.619Z,6.20
2019-03-17T14:50:37.275Z,6.00
2019-03-17T14:53:06.907Z,5.90
2019-03-17T14:55:36.573Z,5.70
2019-03-17T14:58:06.304Z,5.60
2019-03-17T15:00:36.196Z,5.50
2019-03-17T15:03:05.844Z,5.40
2019-03-17T15:05:35.597Z,5.50
2019-03-17T15:08:05.109Z,5.40
2019-03-17T15:11:04.960Z,5.40
2019-03-17T15:13:24.114Z,5.50
2019-03-17T15:16:02.739Z,5.40
2019-03-17T15:18:25.104Z,5.40
2019-03-17T15:20:54.637Z,5.20
2019-03-17T15:23:24.725Z,5.10
2019-03-17T15:25:54.294Z,5.00
2019-03-17T15:28:23.934Z,5.00
2019-03-17T15:31:09.778Z,5.20
2019-03-17T15:33:25.516Z,5.00
2019-03-17T15:35:55.224Z,4.90
2019-03-17T15:38:24.831Z,4.80
2019-03-17T15:41:18.891Z,4.70
2019-03-17T15:43:45.944Z,4.60
2019-03-17T15:46:15.791Z,4.50
2019-03-17T15:48:45.396Z,4.60
2019-03-17T15:51:20.304Z,4.50
2019-03-17T15:53:46.335Z,4.60
2019-03-17T15:56:17.063Z,4.60
2019-03-17T15:58:46.528Z,4.50
2019-03-17T16:01:16.053Z,4.50
2019-03-17T16:04:21.276Z,4.50
2019-03-17T16:06:50.922Z,4.50
2019-03-17T16:09:20.493Z,4.50
2019-03-17T16:11:50.140Z,4.50
2019-03-17T16:14:20.076Z,4.50
2019-03-17T16:16:49.624Z,4.40
2019-03-17T16:19:19.741Z,4.40
2019-03-17T16:21:49.897Z,4.40
2019-03-17T16:24:19.623Z,4.30
2019-03-17T16:26:49.231Z,4.40
2019-03-17T16:29:19.106Z,4.40
2019-03-17T16:31:48.733Z,4.40
2019-03-17T16:34:18.312Z,4.40
2019-03-17T16:36:47.857Z,4.40
2019-03-17T16:39:17.439Z,4.40
2019-03-17T16:41:47.401Z,4.40
2019-03-17T16:45:11.873Z,4.30
2019-03-17T16:47:41.512Z,4.40
2019-03-17T16:50:28.853Z,4.40
2019-03-17T16:52:58.467Z,4.40
2019-03-17T16:55:28.345Z,4.30
2019-03-17T16:58:00.102Z,4.30
2019-03-17T17:00:30.044Z,4.30
2019-03-17T17:02:59.632Z,4.40
2019-03-17T17:05:29.342Z,4.40
2019-03-17T17:07:58.932Z,4.30
2019-03-17T17:10:29.125Z,4.30
2019-03-17T17:12:59.081Z,4.30
2019-03-17T17:15:28.785Z,4.30
2019-03-17T17:18:34.235Z,4.30
2019-03-17T17:21:03.833Z,4.30
2019-03-17T17:23:33.361Z,4.30
2019-03-17T17:26:03.067Z,4.30
2019-03-17T17:28:32.743Z,4.30
2019-03-17T17:31:02.335Z,4.30
2019-03-17T17:33:31.887Z,4.30
2019-03-17T17:36:01.542Z,4.30
2019-03-17T17:38:31.143Z,4.30
2019-03-17T17:41:00.793Z,4.30
2019-03-17T17:43:30.500Z,4.30
2019-03-17T17:46:00.091Z,4.40
2019-03-17T17:48:30.762Z,4.40
2019-03-17T17:51:00.350Z,4.40
2019-03-17T17:53:29.910Z,4.40
2019-03-17T17:55:59.492Z,4.40
2019-03-17T17:58:29.162Z,4.40
2019-03-17T18:00:58.996Z,4.30
2019-03-17T18:03:28.823Z,4.30
2019-03-17T18:06:35.157Z,4.30
2019-03-17T18:09:06.496Z,4.20
2019-03-17T18:11:36.309Z,4.10
2019-03-17T18:14:06.152Z,4.10
2019-03-17T18:16:36.059Z,4.00
2019-03-17T18:19:24.050Z,3.90
2019-03-17T18:21:53.993Z,3.90
2019-03-17T18:24:23.878Z,3.80
2019-03-17T18:26:55.151Z,3.80
2019-03-17T18:29:24.873Z,3.80
2019-03-17T18:31:54.511Z,3.80
2019-03-17T18:34:24.215Z,3.80
2019-03-17T18:36:53.834Z,3.80
2019-03-17T18:39:23.578Z,3.80
2019-03-17T18:41:53.183Z,3.80
2019-03-17T18:44:22.840Z,3.80
2019-03-17T18:46:52.447Z,3.80
2019-03-17T18:52:51.136Z,3.80
2019-03-17T18:55:20.709Z,3.70
2019-03-17T18:57:51.548Z,3.70
2019-03-17T19:00:21.073Z,3.60
2019-03-17T19:02:51.023Z,3.60
2019-03-17T19:05:20.694Z,3.60
2019-03-17T19:07:50.364Z,3.60
2019-03-17T19:10:20.144Z,3.60
2019-03-17T19:12:49.771Z,3.60
2019-03-17T19:15:19.424Z,3.60
2019-03-17T19:17:49.098Z,3.60
2019-03-17T19:20:18.696Z,3.60
2019-03-17T19:22:48.625Z,3.60
2019-03-17T19:25:18.374Z,3.60
2019-03-17T19:27:48.067Z,3.60
2019-03-17T19:30:18.142Z,3.60
2019-03-17T19:32:47.989Z,3.60
2019-03-17T19:35:17.643Z,3.70
2019-03-17T19:37:47.196Z,3.70
2019-03-17T19:40:16.920Z,3.80
2019-03-17T19:42:58.076Z,3.80
2019-03-17T19:45:17.860Z,3.80
2019-03-17T19:47:47.536Z,3.80
2019-03-17T19:50:17.224Z,3.80
2019-03-17T19:52:46.785Z,3.90
2019-03-17T19:55:16.393Z,3.80
2019-03-17T19:57:46.144Z,3.90
2019-03-17T20:00:16.219Z,3.90
2019-03-17T20:02:47.785Z,4.00
2019-03-17T20:05:17.306Z,4.00
2019-03-17T20:07:47.285Z,4.00
2019-03-17T20:10:19.546Z,4.00
2019-03-17T20:12:49.594Z,4.00
2019-03-17T20:15:19.190Z,4.00
2019-03-17T20:17:48.849Z,3.90
2019-03-17T20:20:18.506Z,3.90
2019-03-17T20:22:48.097Z,3.90
2019-03-17T20:25:17.620Z,3.90
2019-03-17T20:27:47.262Z,3.80
2019-03-17T20:30:17.028Z,3.70
2019-03-17T20:32:46.631Z,3.70
2019-03-17T20:35:16.645Z,3.70
2019-03-17T20:37:46.272Z,3.70
2019-03-17T20:40:15.929Z,3.60
2019-03-17T20:42:45.641Z,3.60
2019-03-17T20:45:15.708Z,3.60
2019-03-17T20:47:45.429Z,3.60
2019-03-17T20:50:15.214Z,3.50
2019-03-17T20:52:45.014Z,3.50
2019-03-17T20:55:14.845Z,3.50
2019-03-17T20:57:44.419Z,3.40
2019-03-17T21:00:14.723Z,3.40
2019-03-17T21:02:44.387Z,3.40
2019-03-17T21:05:14.246Z,3.40
2019-03-17T21:07:43.877Z,3.40
2019-03-17T21:10:13.515Z,3.40
2019-03-17T21:12:43.025Z,3.30
2019-03-17T21:15:12.904Z,3.30
2019-03-17T21:17:42.509Z,3.30
2019-03-17T21:20:13.564Z,3.30
2019-03-17T21:22:43.787Z,3.40
2019-03-17T21:25:14.794Z,3.30
2019-03-17T21:27:44.661Z,3.30
2019-03-17T21:30:16.763Z,3.30
2019-03-17T21:32:46.956Z,3.30
2019-03-17T21:35:16.765Z,3.30
2019-03-17T21:37:46.509Z,3.30
2019-03-17T21:40:16.301Z,3.20
2019-03-17T21:42:45.969Z,3.30
2019-03-17T21:45:15.775Z,3.20
2019-03-17T21:47:45.446Z,3.20
2019-03-17T21:50:16.011Z,3.20
2019-03-17T21:52:45.800Z,3.20
2019-03-17T21:55:15.450Z,3.20
2019-03-17T21:57:45.245Z,3.20
2019-03-17T22:00:15.809Z,3.20
2019-03-17T22:02:45.628Z,3.10
2019-03-17T22:05:15.689Z,3.10
2019-03-17T22:07:49.999Z,3.10
2019-03-17T22:10:16.988Z,3.00
2019-03-17T22:12:46.553Z,3.00
2019-03-17T22:15:16.332Z,3.00
2019-03-17T22:17:45.983Z,3.00
2019-03-17T22:20:15.959Z,2.90
2019-03-17T22:22:45.567Z,2.90
2019-03-17T22:25:15.464Z,2.90
2019-03-17T22:27:45.072Z,2.80
2019-03-17T22:30:14.705Z,2.80
2019-03-17T22:32:44.242Z,2.80
2019-03-17T22:35:13.751Z,2.70
2019-03-17T22:37:43.457Z,2.70
2019-03-17T22:40:13.060Z,2.80
2019-03-17T22:42:42.936Z,2.70
2019-03-17T22:45:13.013Z,2.70
2019-03-17T22:47:42.594Z,2.70
2019-03-17T22:50:12.432Z,2.60
2019-03-17T22:52:42.042Z,2.60
2019-03-17T22:55:11.663Z,2.50
2019-03-17T22:57:41.232Z,2.60
2019-03-17T23:00:14.137Z,2.60
2019-03-17T23:02:43.705Z,2.50
2019-03-17T23:05:13.499Z,2.50
2019-03-17T23:07:43.076Z,2.40
2019-03-17T23:10:12.844Z,2.30
2019-03-17T23:12:42.514Z,2.30
2019-03-17T23:15:12.135Z,2.20
2019-03-17T23:17:41.740Z,2.30
2019-03-17T23:20:11.334Z,2.30
2019-03-17T23:22:41.250Z,2.40
2019-03-17T23:25:11.279Z,2.30
2019-03-17T23:27:40.801Z,2.30
2019-03-17T23:30:11.241Z,2.30
2019-03-17T23:32:40.880Z,2.30
2019-03-17T23:35:10.376Z,2.40
2019-03-17T23:37:39.849Z,2.40
2019-03-17T23:40:10.805Z,2.30
2019-03-17T23:42:40.561Z,2.30
2019-03-17T23:45:10.247Z,2.30
2019-03-17T23:47:39.805Z,2.30
2019-03-17T23:50:09.690Z,2.30
2019-03-17T23:52:39.234Z,2.20
2019-03-17T23:55:11.260Z,2.20
2019-03-17T23:57:40.855Z,2.20
